createdAt,value
2019-04-05T00:00:10.370Z,0.00
2019-04-05T00:01:10.338Z,0.00
2019-04-05T00:02:10.329Z,0.00
2019-04-05T00:03:10.315Z,0.00
2019-04-05T00:04:10.305Z,0.00
2019-04-05T00:05:10.313Z,0.00
2019-04-05T00:06:10.282Z,0.00
2019-04-05T00:07:10.269Z,0.00
2019-04-05T00:08:10.263Z,0.00
2019-04-05T00:09:10.247Z,0.00
2019-04-05T00:10:10.252Z,0.00
2019-04-05T00:11:10.227Z,0.00
2019-04-05T00:12:10.211Z,0.00
2019-04-05T00:13:10.200Z,0.00
2019-04-05T00:14:10.191Z,0.00
2019-04-05T00:15:15.636Z,0.00
2019-04-05T00:16:11.219Z,0.00
2019-04-05T00:17:10.241Z,0.00
2019-04-05T00:18:10.143Z,0.00
2019-04-05T00:19:10.219Z,0.00
2019-04-05T00:20:10.139Z,0.00
2019-04-05T00:21:10.108Z,0.00
2019-04-05T00:22:10.098Z,0.00
2019-04-05T00:23:10.086Z,0.00
2019-04-05T00:24:10.075Z,0.00
2019-04-05T00:25:10.080Z,0.00
2019-04-05T00:26:10.054Z,0.00
2019-04-05T00:27:10.037Z,0.00
2019-04-05T00:28:10.029Z,0.00
2019-04-05T00:29:10.017Z,0.00
2019-04-05T00:30:10.023Z,0.00
2019-04-05T00:31:09.991Z,0.00
2019-04-05T00:32:09.983Z,0.00
2019-04-05T00:33:09.969Z,0.00
2019-04-05T00:34:09.957Z,0.00
2019-04-05T00:35:09.969Z,0.00
2019-04-05T00:36:09.934Z,0.00
2019-04-05T00:37:09.923Z,0.00
2019-04-05T00:38:09.911Z,0.00
2019-04-05T00:39:09.905Z,0.00
2019-04-05T00:40:09.888Z,0.00
2019-04-05T00:41:09.894Z,0.00
2019-04-05T00:42:09.864Z,0.00
2019-04-05T00:43:09.851Z,0.00
2019-04-05T00:44:09.840Z,0.00
2019-04-05T00:45:09.830Z,0.00
2019-04-05T00:46:09.837Z,0.00
2019-04-05T00:47:09.807Z,0.00
2019-04-05T00:48:09.795Z,0.00
2019-04-05T00:49:09.785Z,0.00
2019-04-05T00:50:09.773Z,0.00
2019-04-05T00:51:09.779Z,0.00
2019-04-05T00:52:09.749Z,0.00
2019-04-05T00:53:09.736Z,0.00
2019-04-05T00:54:09.733Z,0.00
2019-04-05T00:55:09.715Z,0.00
2019-04-05T00:56:09.720Z,0.00
2019-04-05T00:57:09.689Z,0.00
2019-04-05T00:58:09.680Z,0.00
2019-04-05T00:59:09.667Z,0.00
2019-04-05T01:00:09.656Z,0.00
2019-04-05T01:01:09.663Z,0.00
2019-04-05T01:02:09.633Z,0.00
2019-04-05T01:03:09.619Z,0.00
2019-04-05T01:04:09.609Z,0.00
2019-04-05T01:05:09.599Z,0.00
2019-04-05T01:06:09.614Z,0.00
2019-04-05T01:07:09.576Z,0.00
2019-04-05T01:08:09.562Z,0.00
2019-04-05T01:09:09.550Z,0.00
2019-04-05T01:10:09.542Z,0.00
2019-04-05T01:11:09.527Z,0.00
2019-04-05T01:12:09.533Z,0.00
2019-04-05T01:13:09.505Z,0.00
2019-04-05T01:14:09.495Z,0.00
2019-04-05T01:15:09.480Z,0.00
2019-04-05T01:16:09.470Z,0.00
2019-04-05T01:17:09.478Z,0.00
2019-04-05T01:18:09.447Z,0.00
2019-04-05T01:19:09.529Z,0.00
2019-04-05T01:20:09.426Z,0.00
2019-04-05T01:21:09.430Z,0.00
2019-04-05T01:22:09.500Z,0.00
2019-04-05T01:23:09.391Z,0.00
2019-04-05T01:24:09.379Z,0.00
2019-04-05T01:25:09.367Z,0.00
2019-04-05T01:26:09.373Z,0.00
2019-04-05T01:27:09.340Z,0.00
2019-04-05T01:28:09.329Z,0.00
2019-04-05T01:29:09.318Z,0.00
2019-04-05T01:30:09.306Z,0.00
2019-04-05T01:31:09.312Z,0.00
2019-04-05T01:32:09.283Z,0.00
2019-04-05T01:33:09.272Z,0.00
2019-04-05T01:34:09.261Z,0.00
2019-04-05T01:35:09.251Z,0.00
2019-04-05T01:36:09.254Z,0.00
2019-04-05T01:37:09.227Z,0.00
2019-04-05T01:38:09.216Z,0.00
2019-04-05T01:39:09.201Z,0.00
2019-04-05T01:40:09.191Z,0.00
2019-04-05T01:41:09.199Z,0.00
2019-04-05T01:42:09.167Z,0.00
2019-04-05T01:43:09.157Z,0.00
2019-04-05T01:44:09.143Z,0.00
2019-04-05T01:45:09.134Z,0.00
2019-04-05T01:46:09.140Z,0.00
2019-04-05T01:47:09.108Z,0.00
2019-04-05T01:48:09.159Z,0.00
2019-04-05T01:49:09.086Z,0.00
2019-04-05T01:50:09.075Z,0.00
2019-04-05T01:51:09.087Z,0.00
2019-04-05T01:52:09.051Z,0.00
2019-04-05T01:53:09.040Z,0.00
2019-04-05T01:54:09.031Z,0.00
2019-04-05T01:55:09.020Z,0.00
2019-04-05T01:56:09.005Z,0.00
2019-04-05T01:57:09.016Z,0.00
2019-04-05T01:58:08.982Z,0.00
2019-04-05T01:59:08.993Z,0.00
2019-04-05T02:00:08.966Z,0.00
2019-04-05T02:01:08.949Z,0.00
2019-04-05T02:02:08.935Z,0.00
2019-04-05T02:03:08.924Z,0.00
2019-04-05T02:04:08.913Z,0.00
2019-04-05T02:05:08.921Z,0.00
2019-04-05T02:06:08.887Z,0.00
2019-04-05T02:07:08.886Z,0.00
2019-04-05T02:08:08.867Z,0.00
2019-04-05T02:09:08.856Z,0.00
2019-04-05T02:10:08.915Z,0.00
2019-04-05T02:11:08.834Z,0.00
2019-04-05T02:12:08.820Z,0.00
2019-04-05T02:13:08.809Z,0.00
2019-04-05T02:14:08.799Z,0.00
2019-04-05T02:15:08.786Z,0.00
2019-04-05T02:16:08.789Z,0.00
2019-04-05T02:17:08.762Z,0.00
2019-04-05T02:18:08.754Z,0.00
2019-04-05T02:19:08.742Z,0.00
2019-04-05T02:20:08.731Z,0.00
2019-04-05T02:21:08.733Z,0.00
2019-04-05T02:22:08.705Z,0.00
2019-04-05T02:23:08.694Z,0.00
2019-04-05T02:24:08.741Z,0.00
2019-04-05T02:25:08.672Z,0.00
2019-04-05T02:26:08.676Z,0.00
2019-04-05T02:27:08.649Z,0.00
2019-04-05T02:28:08.636Z,0.00
2019-04-05T02:29:08.624Z,0.00
2019-04-05T02:30:08.622Z,0.00
2019-04-05T02:31:08.625Z,0.00
2019-04-05T02:32:08.588Z,0.00
2019-04-05T02:33:08.586Z,0.00
2019-04-05T02:34:08.563Z,0.00
2019-04-05T02:35:08.553Z,0.00
2019-04-05T02:36:08.545Z,0.00
2019-04-05T02:37:08.550Z,0.00
2019-04-05T02:38:08.520Z,0.00
2019-04-05T02:39:08.511Z,0.00
2019-04-05T02:40:08.495Z,0.00
2019-04-05T02:41:08.484Z,0.00
2019-04-05T02:42:08.492Z,0.00
2019-04-05T02:43:08.461Z,0.00
2019-04-05T02:44:08.448Z,0.00
2019-04-05T02:45:08.438Z,0.00
2019-04-05T02:46:22.563Z,0.00
2019-04-05T02:47:09.433Z,0.00
2019-04-05T02:48:08.401Z,0.00
2019-04-05T02:49:08.390Z,0.00
2019-04-05T02:50:08.380Z,0.00
2019-04-05T02:51:08.373Z,0.00
2019-04-05T02:52:08.378Z,0.00
2019-04-05T02:53:08.347Z,0.00
2019-04-05T02:54:08.333Z,0.00
2019-04-05T02:55:08.323Z,0.00
2019-04-05T02:56:08.311Z,0.00
2019-04-05T02:57:08.338Z,0.00
2019-04-05T02:58:08.289Z,0.00
2019-04-05T02:59:08.275Z,0.00
2019-04-05T03:00:08.265Z,0.00
2019-04-05T03:01:08.255Z,0.00
2019-04-05T03:02:08.239Z,0.00
2019-04-05T03:03:08.250Z,0.00
2019-04-05T03:04:08.223Z,0.00
2019-04-05T03:05:08.211Z,0.00
2019-04-05T03:06:08.195Z,0.00
2019-04-05T03:07:08.183Z,0.00
2019-04-05T03:08:08.208Z,0.00
2019-04-05T03:09:08.161Z,0.00
2019-04-05T03:10:08.146Z,0.00
2019-04-05T03:11:08.135Z,0.00
2019-04-05T03:12:08.126Z,0.00
2019-04-05T03:13:08.134Z,0.00
2019-04-05T03:14:08.100Z,0.00
2019-04-05T03:15:08.089Z,0.00
2019-04-05T03:16:08.079Z,0.00
2019-04-05T03:17:08.068Z,0.00
2019-04-05T03:18:08.055Z,0.00
2019-04-05T03:19:08.064Z,0.00
2019-04-05T03:20:08.034Z,0.00
2019-04-05T03:21:08.021Z,0.00
2019-04-05T03:22:08.027Z,0.00
2019-04-05T03:23:07.995Z,0.00
2019-04-05T03:24:08.003Z,0.00
2019-04-05T03:25:07.974Z,0.00
2019-04-05T03:26:07.959Z,0.00
2019-04-05T03:27:07.950Z,0.00
2019-04-05T03:28:07.943Z,0.00
2019-04-05T03:29:07.945Z,0.00
2019-04-05T03:30:07.923Z,0.00
2019-04-05T03:31:07.911Z,0.00
2019-04-05T03:32:07.914Z,0.00
2019-04-05T03:33:07.881Z,0.00
2019-04-05T03:34:07.904Z,0.00
2019-04-05T03:35:07.858Z,0.00
2019-04-05T03:36:07.847Z,0.00
2019-04-05T03:37:07.836Z,0.00
2019-04-05T03:38:07.822Z,0.00
2019-04-05T03:39:07.855Z,0.00
2019-04-05T03:40:07.804Z,0.00
2019-04-05T03:41:07.787Z,0.00
2019-04-05T03:42:07.785Z,0.00
2019-04-05T03:43:07.767Z,0.00
2019-04-05T03:44:07.753Z,0.00
2019-04-05T03:45:07.765Z,0.00
2019-04-05T03:46:07.729Z,0.00
2019-04-05T03:47:07.730Z,0.00
2019-04-05T03:48:07.707Z,0.00
2019-04-05T03:49:07.695Z,0.00
2019-04-05T03:50:07.703Z,0.00
2019-04-05T03:51:07.673Z,0.00
2019-04-05T03:52:07.662Z,0.00
2019-04-05T03:53:07.653Z,0.00
2019-04-05T03:54:07.637Z,0.00
2019-04-05T03:55:07.642Z,0.00
2019-04-05T03:56:07.616Z,0.00
2019-04-05T03:57:07.600Z,0.00
2019-04-05T03:58:07.596Z,0.00
2019-04-05T03:59:07.580Z,0.00
2019-04-05T04:00:07.586Z,0.00
2019-04-05T04:01:07.553Z,0.00
2019-04-05T04:02:07.570Z,0.00
2019-04-05T04:03:07.533Z,0.00
2019-04-05T04:04:07.534Z,0.00
2019-04-05T04:05:07.533Z,0.00
2019-04-05T04:06:07.503Z,0.00
2019-04-05T04:07:07.498Z,0.00
2019-04-05T04:08:07.478Z,0.00
2019-04-05T04:09:07.462Z,0.00
2019-04-05T04:10:07.462Z,0.00
2019-04-05T04:11:07.458Z,0.00
2019-04-05T04:12:07.430Z,0.00
2019-04-05T04:13:07.414Z,0.00
2019-04-05T04:14:07.403Z,0.00
2019-04-05T04:15:07.399Z,0.00
2019-04-05T04:16:07.404Z,0.00
2019-04-05T04:17:12.582Z,0.00
2019-04-05T04:18:08.358Z,0.00
2019-04-05T04:19:07.354Z,0.00
2019-04-05T04:20:07.336Z,0.00
2019-04-05T04:21:07.329Z,0.00
2019-04-05T04:23:16.155Z,0.00
2019-04-05T04:24:16.129Z,0.00
2019-04-05T04:25:16.115Z,0.00
2019-04-05T04:26:16.124Z,0.00
2019-04-05T04:27:16.090Z,0.00
2019-04-05T04:28:16.083Z,0.00
2019-04-05T04:29:16.069Z,0.00
2019-04-05T04:30:16.062Z,0.00
2019-04-05T04:31:16.048Z,0.00
2019-04-05T04:32:16.056Z,0.00
2019-04-05T04:33:16.022Z,0.00
2019-04-05T04:34:16.028Z,0.00
2019-04-05T04:35:16.000Z,0.00
2019-04-05T04:36:15.987Z,0.00
2019-04-05T04:37:15.991Z,0.00
2019-04-05T04:38:15.963Z,0.00
2019-04-05T04:39:15.953Z,0.00
2019-04-05T04:40:15.952Z,0.00
2019-04-05T04:41:15.929Z,0.00
2019-04-05T04:42:15.939Z,0.00
2019-04-05T04:43:15.905Z,0.00
2019-04-05T04:44:15.892Z,0.00
2019-04-05T04:45:15.882Z,0.00
2019-04-05T04:46:15.870Z,0.00
2019-04-05T04:47:26.304Z,0.00
2019-04-05T04:48:16.845Z,0.00
2019-04-05T04:49:15.842Z,0.00
2019-04-05T04:50:15.824Z,0.00
2019-04-05T04:51:15.811Z,0.00
2019-04-05T04:52:15.831Z,0.00
2019-04-05T04:53:15.789Z,0.00
2019-04-05T04:54:15.777Z,0.00
2019-04-05T04:55:15.764Z,0.00
2019-04-05T04:56:15.753Z,0.00
2019-04-05T04:57:15.747Z,0.00
2019-04-05T04:58:15.749Z,0.00
2019-04-05T04:59:15.718Z,0.00
2019-04-05T05:00:15.708Z,0.00
2019-04-05T05:01:15.697Z,0.00
2019-04-05T05:02:15.685Z,0.00
2019-04-05T05:03:15.693Z,5.62
2019-04-05T05:04:15.667Z,5.62
2019-04-05T05:05:15.652Z,5.62
2019-04-05T05:06:15.638Z,5.62
2019-04-05T05:07:15.632Z,5.62
2019-04-05T05:08:15.638Z,5.62
2019-04-05T05:09:15.602Z,5.62
2019-04-05T05:10:15.593Z,11.25
2019-04-05T05:11:15.587Z,11.25
2019-04-05T05:12:15.573Z,11.25
2019-04-05T05:13:15.588Z,11.25
2019-04-05T05:14:15.551Z,11.25
2019-04-05T05:15:15.541Z,11.25
2019-04-05T05:16:15.528Z,11.25
2019-04-05T05:17:15.514Z,11.25
2019-04-05T05:18:15.501Z,11.25
2019-04-05T05:19:15.508Z,11.25
2019-04-05T05:20:15.484Z,11.25
2019-04-05T05:21:15.467Z,11.25
2019-04-05T05:22:15.463Z,11.25
2019-04-05T05:23:15.504Z,11.25
2019-04-05T05:24:15.477Z,16.88
2019-04-05T05:25:15.422Z,16.88
2019-04-05T05:26:15.408Z,16.88
2019-04-05T05:27:15.407Z,16.88
2019-04-05T05:28:15.390Z,16.88
2019-04-05T06:49:58.234Z,151.88
2019-04-05T06:51:03.651Z,174.38
2019-04-05T06:51:49.016Z,191.25
2019-04-05T06:53:14.638Z,236.25
2019-04-05T06:54:40.278Z,275.62
2019-04-05T06:55:45.771Z,298.12
2019-04-05T06:57:11.388Z,320.62
2019-04-05T06:58:11.383Z,337.50
2019-04-05T06:59:11.372Z,337.50
2019-04-05T07:00:11.375Z,326.25
2019-04-05T07:01:11.343Z,292.50
2019-04-05T07:02:11.391Z,275.62
2019-04-05T07:03:13.635Z,292.50
2019-04-05T07:04:11.307Z,303.75
2019-04-05T07:05:11.330Z,309.38
2019-04-05T07:06:11.286Z,303.75
2019-04-05T07:07:11.276Z,303.75
2019-04-05T07:08:11.264Z,337.50
2019-04-05T07:09:11.251Z,348.75
2019-04-05T07:10:11.247Z,360.00
2019-04-05T07:11:11.249Z,354.38
2019-04-05T07:12:11.230Z,331.88
2019-04-05T07:13:11.207Z,326.25
2019-04-05T07:14:11.193Z,360.00
2019-04-05T07:15:11.182Z,393.75
2019-04-05T07:16:11.346Z,399.38
2019-04-05T07:17:11.158Z,388.12
2019-04-05T07:18:11.149Z,365.62
2019-04-05T07:19:11.184Z,371.25
2019-04-05T07:20:11.126Z,376.88
2019-04-05T07:21:11.133Z,376.88
2019-04-05T07:22:11.098Z,399.38
2019-04-05T07:23:11.096Z,399.38
2019-04-05T07:24:11.076Z,405.00
2019-04-05T07:25:11.065Z,393.75
2019-04-05T07:26:11.054Z,393.75
2019-04-05T07:27:11.064Z,382.50
2019-04-05T07:28:11.031Z,393.75
2019-04-05T07:29:11.015Z,393.75
2019-04-05T07:30:11.005Z,376.88
2019-04-05T07:31:10.991Z,354.38
2019-04-05T07:32:11.003Z,326.25
2019-04-05T07:33:10.967Z,382.50
2019-04-05T07:34:10.956Z,388.12
2019-04-05T07:35:10.949Z,376.88
2019-04-05T07:36:10.932Z,343.12
2019-04-05T07:37:10.961Z,382.50
2019-04-05T07:38:10.909Z,416.25
2019-04-05T07:39:10.898Z,421.88
2019-04-05T07:40:10.884Z,427.50
2019-04-05T07:41:10.874Z,433.12
2019-04-05T07:42:10.860Z,393.75
2019-04-05T07:43:10.868Z,371.25
2019-04-05T07:44:10.839Z,348.75
2019-04-05T07:45:10.827Z,388.12
2019-04-05T07:46:10.866Z,416.25
2019-04-05T07:47:10.805Z,416.25
2019-04-05T07:48:10.810Z,433.12
2019-04-05T07:49:10.778Z,455.62
2019-04-05T07:50:10.768Z,478.12
2019-04-05T07:51:10.759Z,495.00
2019-04-05T07:52:13.034Z,483.75
2019-04-05T07:53:10.749Z,472.50
2019-04-05T07:54:10.720Z,472.50
2019-04-05T07:55:10.708Z,478.12
2019-04-05T07:56:10.696Z,489.38
2019-04-05T07:57:10.694Z,450.00
2019-04-05T07:58:10.696Z,376.88
2019-04-05T07:59:10.663Z,365.62
2019-04-05T08:00:10.649Z,382.50
2019-04-05T08:01:10.638Z,382.50
2019-04-05T08:02:10.628Z,354.38
2019-04-05T08:03:10.615Z,365.62
2019-04-05T08:04:10.622Z,410.62
2019-04-05T08:05:10.593Z,438.75
2019-04-05T08:06:10.579Z,433.12
2019-04-05T08:07:10.570Z,388.12
2019-04-05T08:08:10.556Z,354.38
2019-04-05T08:09:10.565Z,360.00
2019-04-05T08:10:10.535Z,348.75
2019-04-05T08:11:10.520Z,326.25
2019-04-05T08:12:10.512Z,286.88
2019-04-05T08:13:10.498Z,241.88
2019-04-05T08:14:10.506Z,196.88
2019-04-05T08:15:10.474Z,174.38
2019-04-05T08:16:10.465Z,163.12
2019-04-05T08:17:10.451Z,168.75
2019-04-05T08:18:10.442Z,168.75
2019-04-05T08:19:10.447Z,168.75
2019-04-05T08:20:10.418Z,174.38
2019-04-05T08:21:10.406Z,185.62
2019-04-05T08:22:10.392Z,202.50
2019-04-05T08:23:10.382Z,270.00
2019-04-05T08:24:10.388Z,331.88
2019-04-05T08:25:10.361Z,354.38
2019-04-05T08:26:10.350Z,343.12
2019-04-05T08:27:10.335Z,303.75
2019-04-05T08:28:10.325Z,264.38
2019-04-05T08:29:10.335Z,247.50
2019-04-05T08:30:10.301Z,230.62
2019-04-05T08:31:11.417Z,236.25
2019-04-05T08:32:14.723Z,225.00
2019-04-05T08:33:10.265Z,213.75
2019-04-05T08:34:10.254Z,208.12
2019-04-05T08:35:10.259Z,219.38
2019-04-05T08:36:10.229Z,213.75
2019-04-05T08:37:10.218Z,213.75
2019-04-05T08:38:10.205Z,230.62
2019-04-05T08:39:10.194Z,230.62
2019-04-05T08:40:10.201Z,225.00
2019-04-05T08:41:10.168Z,225.00
2019-04-05T08:42:11.029Z,275.62
2019-04-05T08:43:10.144Z,365.62
2019-04-05T08:44:10.134Z,421.88
2019-04-05T08:45:10.160Z,433.12
2019-04-05T08:46:10.127Z,438.75
2019-04-05T08:47:10.103Z,450.00
2019-04-05T08:48:10.084Z,461.25
2019-04-05T08:49:11.439Z,461.25
2019-04-05T08:50:10.061Z,472.50
2019-04-05T08:51:10.070Z,483.75
2019-04-05T08:52:10.040Z,489.38
2019-04-05T08:53:10.027Z,506.25
2019-04-05T08:54:10.087Z,534.38
2019-04-05T08:55:10.004Z,585.00
2019-04-05T08:56:10.013Z,635.62
2019-04-05T08:57:09.982Z,675.00
2019-04-05T08:58:09.969Z,697.50
2019-04-05T08:59:09.960Z,708.75
2019-04-05T09:00:09.949Z,708.75
2019-04-05T09:01:09.959Z,686.25
2019-04-05T09:02:09.922Z,652.50
2019-04-05T09:03:11.933Z,613.12
2019-04-05T09:04:09.901Z,601.88
2019-04-05T09:05:09.909Z,590.62
2019-04-05T09:06:09.878Z,590.62
2019-04-05T09:07:09.882Z,596.25
2019-04-05T09:08:09.852Z,590.62
2019-04-05T09:09:09.841Z,573.75
2019-04-05T09:10:09.830Z,568.12
2019-04-05T09:11:09.818Z,573.75
2019-04-05T09:12:09.825Z,573.75
2019-04-05T09:13:09.795Z,590.62
2019-04-05T09:14:09.783Z,601.88
2019-04-05T09:15:09.772Z,635.62
2019-04-05T09:16:11.746Z,675.00
2019-04-05T09:17:09.766Z,714.38
2019-04-05T09:18:09.741Z,725.62
2019-04-05T09:19:22.797Z,703.12
2019-04-05T09:20:10.713Z,697.50
2019-04-05T09:21:10.195Z,691.88
2019-04-05T09:22:09.711Z,675.00
2019-04-05T09:23:09.678Z,686.25
2019-04-05T09:24:09.666Z,725.62
2019-04-05T09:25:09.656Z,725.62
2019-04-05T09:26:09.643Z,697.50
2019-04-05T09:27:09.649Z,680.62
2019-04-05T09:28:09.618Z,686.25
2019-04-05T09:29:09.623Z,646.88
2019-04-05T09:30:09.596Z,590.62
2019-04-05T09:31:09.584Z,556.88
2019-04-05T09:32:09.572Z,528.75
2019-04-05T09:33:09.582Z,495.00
2019-04-05T09:34:09.549Z,472.50
2019-04-05T09:35:09.537Z,461.25
2019-04-05T09:36:09.528Z,455.62
2019-04-05T09:37:09.515Z,438.75
2019-04-05T09:38:09.525Z,444.38
2019-04-05T09:39:14.996Z,495.00
2019-04-05T09:40:10.478Z,562.50
2019-04-05T09:41:09.468Z,607.50
2019-04-05T09:42:09.456Z,652.50
2019-04-05T09:43:09.445Z,697.50
2019-04-05T09:44:09.454Z,714.38
2019-04-05T09:45:09.420Z,703.12
2019-04-05T09:46:09.409Z,663.75
2019-04-05T09:47:09.400Z,641.25
2019-04-05T09:48:09.386Z,624.38
2019-04-05T09:49:09.395Z,607.50
2019-04-05T09:50:09.363Z,596.25
2019-04-05T09:51:09.353Z,568.12
2019-04-05T09:52:09.346Z,511.88
2019-04-05T09:53:09.395Z,472.50
2019-04-05T09:54:09.336Z,466.88
2019-04-05T09:55:09.336Z,478.12
2019-04-05T09:56:09.293Z,478.12
2019-04-05T09:57:09.283Z,472.50
2019-04-05T09:58:10.292Z,466.88
2019-04-05T09:59:09.278Z,523.12
2019-04-05T10:00:09.248Z,613.12
2019-04-05T10:01:09.242Z,675.00
2019-04-05T10:02:09.234Z,675.00
2019-04-05T10:03:09.213Z,641.25
2019-04-05T10:04:09.220Z,579.38
2019-04-05T10:05:09.188Z,562.50
2019-04-05T10:06:09.178Z,585.00
2019-04-05T10:07:09.163Z,641.25
2019-04-05T10:08:09.152Z,725.62
2019-04-05T10:09:09.142Z,753.75
2019-04-05T10:10:09.148Z,703.12
2019-04-05T10:11:09.127Z,624.38
2019-04-05T10:12:09.108Z,590.62
2019-04-05T10:13:09.867Z,562.50
2019-04-05T10:14:09.083Z,511.88
2019-04-05T10:15:09.094Z,455.62
2019-04-05T10:16:09.061Z,421.88
2019-04-05T10:17:09.048Z,405.00
2019-04-05T10:18:09.035Z,388.12
2019-04-05T10:19:09.024Z,388.12
2019-04-05T10:20:09.070Z,416.25
2019-04-05T10:21:09.034Z,455.62
2019-04-05T10:22:09.004Z,495.00
2019-04-05T10:23:08.982Z,534.38
2019-04-05T10:24:08.966Z,568.12
2019-04-05T10:25:08.958Z,601.88
2019-04-05T10:26:08.966Z,624.38
2019-04-05T10:27:08.930Z,663.75
2019-04-05T10:28:08.933Z,731.25
2019-04-05T10:29:08.912Z,804.38
2019-04-05T10:30:08.896Z,849.38
2019-04-05T10:31:08.907Z,832.50
2019-04-05T10:32:08.875Z,781.88
2019-04-05T10:33:08.865Z,703.12
2019-04-05T10:34:08.854Z,641.25
2019-04-05T10:35:08.840Z,601.88
2019-04-05T10:36:08.843Z,585.00
2019-04-05T10:37:08.816Z,579.38
2019-04-05T10:38:08.802Z,517.50
2019-04-05T10:39:08.789Z,421.88
2019-04-05T10:40:08.780Z,326.25
2019-04-05T10:41:08.786Z,281.25
2019-04-05T10:42:08.754Z,270.00
2019-04-05T10:43:08.746Z,275.62
2019-04-05T10:44:08.730Z,286.88
2019-04-05T10:45:08.723Z,286.88
2019-04-05T10:46:08.729Z,292.50
2019-04-05T10:47:08.698Z,309.38
2019-04-05T10:48:08.685Z,331.88
2019-04-05T10:49:08.673Z,371.25
2019-04-05T10:50:08.662Z,399.38
2019-04-05T10:51:08.649Z,444.38
2019-04-05T10:52:08.662Z,500.62
2019-04-05T10:53:08.628Z,540.00
2019-04-05T10:54:09.561Z,568.12
2019-04-05T10:55:08.604Z,556.88
2019-04-05T10:56:08.592Z,528.75
2019-04-05T10:57:08.604Z,517.50
2019-04-05T10:58:08.570Z,489.38
2019-04-05T10:59:08.557Z,506.25
2019-04-05T11:00:08.550Z,534.38
2019-04-05T11:01:08.534Z,545.62
2019-04-05T11:02:08.560Z,568.12
2019-04-05T11:03:08.511Z,613.12
2019-04-05T11:04:08.503Z,663.75
2019-04-05T11:05:08.488Z,697.50
2019-04-05T11:06:08.477Z,686.25
2019-04-05T11:07:08.462Z,652.50
2019-04-05T11:08:08.483Z,618.75
2019-04-05T11:09:08.451Z,573.75
2019-04-05T11:10:08.432Z,534.38
2019-04-05T11:11:08.420Z,517.50
2019-04-05T11:12:08.781Z,523.12
2019-04-05T11:13:08.423Z,511.88
2019-04-05T11:14:13.973Z,517.50
2019-04-05T11:15:09.368Z,562.50
2019-04-05T11:16:08.355Z,624.38
2019-04-05T11:17:08.345Z,675.00
2019-04-05T11:18:08.380Z,697.50
2019-04-05T11:19:08.321Z,686.25
2019-04-05T11:20:20.799Z,646.88
2019-04-05T11:21:09.297Z,607.50
2019-04-05T11:22:08.285Z,573.75
2019-04-05T11:23:08.272Z,540.00
2019-04-05T11:24:08.288Z,517.50
2019-04-05T11:25:08.249Z,506.25
2019-04-05T11:26:08.238Z,489.38
2019-04-05T11:27:08.226Z,489.38
2019-04-05T11:28:08.215Z,489.38
2019-04-05T11:29:08.223Z,489.38
2019-04-05T11:30:08.191Z,483.75
2019-04-05T11:31:08.181Z,478.12
2019-04-05T11:32:08.166Z,466.88
2019-04-05T11:33:08.158Z,444.38
2019-04-05T11:34:08.146Z,427.50
2019-04-05T11:35:08.151Z,405.00
2019-04-05T11:36:08.121Z,382.50
2019-04-05T11:37:08.107Z,365.62
2019-04-05T11:38:08.096Z,348.75
2019-04-05T11:39:08.094Z,337.50
2019-04-05T11:40:08.096Z,331.88
2019-04-05T11:41:08.062Z,326.25
2019-04-05T11:42:08.052Z,320.62
2019-04-05T11:43:08.040Z,315.00
2019-04-05T11:44:08.026Z,315.00
2019-04-05T11:45:08.037Z,309.38
2019-04-05T11:46:08.005Z,298.12
2019-04-05T11:47:07.990Z,292.50
2019-04-05T11:48:07.982Z,286.88
2019-04-05T11:49:07.965Z,275.62
2019-04-05T11:50:07.958Z,264.38
2019-04-05T11:51:07.966Z,247.50
2019-04-05T11:52:07.934Z,236.25
2019-04-05T11:53:07.923Z,230.62
2019-04-05T11:54:07.910Z,225.00
2019-04-05T11:55:07.897Z,230.62
2019-04-05T11:56:14.541Z,253.12
2019-04-05T11:57:08.872Z,275.62
2019-04-05T11:58:07.863Z,320.62
2019-04-05T11:59:07.853Z,365.62
2019-04-05T12:00:07.863Z,405.00
2019-04-05T12:01:07.871Z,405.00
2019-04-05T12:02:07.821Z,388.12
2019-04-05T12:03:09.692Z,382.50
2019-04-05T12:04:07.792Z,388.12
2019-04-05T12:05:07.786Z,427.50
2019-04-05T12:06:07.771Z,461.25
2019-04-05T12:07:07.779Z,478.12
2019-04-05T12:08:07.747Z,483.75
2019-04-05T12:09:07.734Z,466.88
2019-04-05T12:10:07.723Z,444.38
2019-04-05T12:11:07.711Z,421.88
2019-04-05T12:12:07.749Z,416.25
2019-04-05T12:13:07.693Z,405.00
2019-04-05T12:14:07.680Z,382.50
2019-04-05T12:15:07.667Z,360.00
2019-04-05T12:16:10.368Z,348.75
2019-04-05T12:17:09.709Z,337.50
2019-04-05T12:18:07.682Z,320.62
2019-04-05T12:19:07.627Z,303.75
2019-04-05T12:20:07.608Z,292.50
2019-04-05T12:21:07.598Z,281.25
2019-04-05T12:22:09.122Z,275.62
2019-04-05T12:23:07.593Z,275.62
2019-04-05T12:24:07.575Z,275.62
2019-04-05T12:25:07.557Z,281.25
2019-04-05T12:26:07.539Z,281.25
2019-04-05T12:27:07.527Z,281.25
2019-04-05T12:28:10.475Z,281.25
2019-04-05T12:29:07.503Z,292.50
2019-04-05T12:30:07.491Z,303.75
2019-04-05T12:31:07.481Z,303.75
2019-04-05T12:32:07.467Z,315.00
2019-04-05T12:33:13.955Z,320.62
2019-04-05T12:34:08.468Z,326.25
2019-04-05T12:35:08.523Z,326.25
2019-04-05T12:36:07.421Z,320.62
2019-04-05T12:37:07.409Z,320.62
2019-04-05T12:38:07.404Z,320.62
2019-04-05T12:39:08.169Z,331.88
2019-04-05T12:40:09.576Z,343.12
2019-04-05T12:41:10.666Z,354.38
2019-04-05T12:42:07.352Z,371.25
2019-04-05T12:43:07.342Z,371.25
2019-04-05T12:44:07.367Z,371.25
2019-04-05T12:45:07.380Z,360.00
2019-04-05T12:46:07.313Z,343.12
2019-04-05T12:47:07.296Z,331.88
2019-04-05T12:48:07.285Z,331.88
2019-04-05T12:49:07.272Z,331.88
2019-04-05T12:51:16.370Z,337.50
2019-04-05T12:52:22.777Z,337.50
2019-04-05T12:53:17.066Z,343.12
2019-04-05T12:54:16.117Z,343.12
2019-04-05T12:55:16.042Z,343.12
2019-04-05T12:56:16.030Z,337.50
2019-04-05T12:57:16.021Z,343.12
2019-04-05T12:58:16.010Z,354.38
2019-04-05T12:59:15.997Z,360.00
2019-04-05T13:00:16.002Z,354.38
2019-04-05T13:01:15.973Z,337.50
2019-04-05T13:02:19.140Z,315.00
2019-04-05T13:03:16.967Z,309.38
2019-04-05T13:04:16.007Z,315.00
2019-04-05T13:05:15.948Z,303.75
2019-04-05T13:06:15.916Z,281.25
2019-04-05T13:07:15.906Z,253.12
2019-04-05T13:08:15.893Z,230.62
2019-04-05T13:09:15.993Z,213.75
2019-04-05T13:10:15.889Z,191.25
2019-04-05T13:11:15.878Z,185.62
2019-04-05T13:12:15.852Z,191.25
2019-04-05T13:13:15.841Z,191.25
2019-04-05T13:14:15.830Z,196.88
2019-04-05T13:15:17.325Z,191.25
2019-04-05T13:16:15.820Z,180.00
2019-04-05T13:17:15.791Z,174.38
2019-04-05T13:18:15.779Z,174.38
2019-04-05T13:19:15.766Z,180.00
2019-04-05T13:20:15.754Z,180.00
2019-04-05T13:21:15.786Z,185.62
2019-04-05T13:22:15.734Z,191.25
2019-04-05T13:23:15.720Z,196.88
2019-04-05T13:24:15.709Z,196.88
2019-04-05T13:25:15.700Z,185.62
2019-04-05T13:26:15.712Z,180.00
2019-04-05T13:27:15.695Z,185.62
2019-04-05T13:28:18.618Z,196.88
2019-04-05T13:29:15.687Z,202.50
2019-04-05T13:30:18.482Z,191.25
2019-04-05T13:31:18.232Z,185.62
2019-04-05T13:32:17.154Z,185.62
2019-04-05T13:33:15.604Z,180.00
2019-04-05T13:34:18.188Z,168.75
2019-04-05T13:35:16.907Z,163.12
2019-04-05T13:36:15.571Z,157.50
2019-04-05T13:37:20.395Z,157.50
2019-04-05T13:38:16.547Z,157.50
2019-04-05T13:39:15.533Z,168.75
2019-04-05T13:40:15.524Z,168.75
2019-04-05T13:41:15.510Z,157.50
2019-04-05T13:42:15.521Z,151.88
2019-04-05T13:43:17.740Z,146.25
2019-04-05T13:44:15.473Z,146.25
2019-04-05T13:45:15.460Z,146.25
2019-04-05T13:46:21.750Z,146.25
2019-04-05T13:47:16.478Z,151.88
2019-04-05T13:48:15.430Z,151.88
2019-04-05T13:49:15.415Z,157.50
2019-04-05T13:50:15.406Z,163.12
2019-04-05T13:51:27.305Z,163.12
2019-04-05T13:52:16.379Z,168.75
2019-04-05T13:53:15.390Z,174.38
2019-04-05T13:54:15.354Z,180.00
2019-04-05T13:55:15.342Z,196.88
2019-04-05T13:56:15.331Z,219.38
2019-04-05T13:57:15.319Z,236.25
2019-04-05T13:58:15.330Z,230.62
2019-04-05T13:59:15.294Z,225.00
2019-04-05T14:00:18.193Z,219.38
2019-04-05T14:01:15.277Z,213.75
2019-04-05T14:02:15.265Z,196.88
2019-04-05T14:03:15.251Z,180.00
2019-04-05T14:04:17.058Z,180.00
2019-04-05T14:05:15.228Z,163.12
2019-04-05T14:06:15.212Z,157.50
2019-04-05T14:07:15.203Z,146.25
2019-04-05T14:08:15.196Z,140.62
2019-04-05T14:09:15.655Z,146.25
2019-04-05T14:10:15.167Z,146.25
2019-04-05T14:11:15.154Z,151.88
2019-04-05T14:12:15.139Z,151.88